createdAt,value
2022-11-01T00:00:35.080Z,166.68
2022-11-01T00:02:58.690Z,152.35
2022-11-01T00:05:22.271Z,180.45
2022-11-01T00:07:45.889Z,167.05
2022-11-01T00:10:11.102Z,166.27
2022-11-01T00:12:36.138Z,173.20
2022-11-01T00:14:59.682Z,178.95
2022-11-01T00:17:23.406Z,183.45
2022-11-01T00:19:46.900Z,161.15
2022-11-01T00:22:10.494Z,158.57
2022-11-01T00:24:34.029Z,164.95
2022-11-01T00:26:57.658Z,161.18
2022-11-01T00:29:22.693Z,167.80
2022-11-01T00:31:46.408Z,187.27
2022-11-01T00:34:10.227Z,171.05
2022-11-01T00:36:34.279Z,196.57
2022-11-01T00:38:57.817Z,168.48
2022-11-01T00:41:21.936Z,160.13
2022-11-01T00:43:45.621Z,156.65
2022-11-01T00:46:11.203Z,156.65
2022-11-01T00:48:34.892Z,159.85
2022-11-01T00:50:58.524Z,166.10
2022-11-01T00:53:22.470Z,137.75
2022-11-01T00:55:46.187Z,162.88
2022-11-01T00:58:10.486Z,144.35
2022-11-01T01:00:34.210Z,149.32
2022-11-01T01:02:59.559Z,154.68
2022-11-01T01:05:23.947Z,157.63
2022-11-01T01:07:47.719Z,172.70
2022-11-01T01:10:11.586Z,151.02
2022-11-01T01:12:35.397Z,150.95
2022-11-01T01:14:59.314Z,177.77
2022-11-01T01:17:23.079Z,163.85
2022-11-01T01:19:48.181Z,156.10
2022-11-01T01:22:11.856Z,167.85
2022-11-01T01:24:35.709Z,165.00
2022-11-01T01:26:59.225Z,178.45
2022-11-01T01:29:23.228Z,192.85
2022-11-01T01:31:46.854Z,160.88
2022-11-01T01:34:10.427Z,170.95
2022-11-01T01:36:35.441Z,162.18
2022-11-01T01:38:59.076Z,200.98
2022-11-01T01:41:40.839Z,156.63
2022-11-01T01:44:04.510Z,162.73
2022-11-01T01:46:28.069Z,179.75
2022-11-01T01:48:58.157Z,157.73
2022-11-01T01:51:26.080Z,160.70
2022-11-01T01:53:54.680Z,181.38
2022-11-01T01:56:23.624Z,168.25
2022-11-01T01:58:54.914Z,145.23
2022-11-01T02:01:18.851Z,165.77
2022-11-01T02:03:43.878Z,180.65
2022-11-01T02:06:11.963Z,178.57
2022-11-01T02:08:38.427Z,165.27
2022-11-01T02:11:07.122Z,161.10
2022-11-01T02:13:31.483Z,175.00
2022-11-01T02:16:36.873Z,166.43
2022-11-01T02:19:27.950Z,185.30
2022-11-01T02:22:02.993Z,155.73
2022-11-01T02:25:01.601Z,171.52
2022-11-01T02:27:35.958Z,166.57
2022-11-01T02:30:18.414Z,164.63
2022-11-01T02:33:10.469Z,172.02
2022-11-01T02:35:48.934Z,150.80
2022-11-01T02:38:20.393Z,167.95
2022-11-01T02:40:54.169Z,170.63
2022-11-01T02:43:22.235Z,184.13
2022-11-01T02:45:50.698Z,158.05
2022-11-01T02:48:15.721Z,168.73
2022-11-01T02:50:44.045Z,166.77
2022-11-01T02:53:08.115Z,165.75
2022-11-01T02:55:31.772Z,158.68
2022-11-01T02:57:57.561Z,154.48
2022-11-01T03:00:25.959Z,166.60
2022-11-01T03:02:54.799Z,146.38
2022-11-01T03:05:26.605Z,150.00
2022-11-01T03:07:57.232Z,187.13
2022-11-01T03:10:23.659Z,160.60
2022-11-01T03:12:57.340Z,175.95
2022-11-01T03:15:27.405Z,187.77
2022-11-01T03:17:57.789Z,159.85
2022-11-01T03:20:28.620Z,155.30
2022-11-01T03:22:57.475Z,203.32
2022-11-01T03:25:40.824Z,159.32
2022-11-01T03:28:09.118Z,178.23
2022-11-01T03:30:34.535Z,234.15
2022-11-01T03:33:00.057Z,198.18
2022-11-01T03:35:28.754Z,204.60
2022-11-01T03:37:56.611Z,191.68
2022-11-01T03:40:21.169Z,202.75
2022-11-01T03:42:48.823Z,244.00
2022-11-01T03:45:15.016Z,226.75
2022-11-01T03:47:38.945Z,224.15
2022-11-01T03:50:17.399Z,224.13
2022-11-01T03:52:42.769Z,224.68
2022-11-01T03:55:18.168Z,278.95
2022-11-01T03:57:42.865Z,239.77
2022-11-01T04:00:08.802Z,239.10
2022-11-01T04:02:35.759Z,215.85
2022-11-01T04:04:59.328Z,183.27
2022-11-01T04:07:22.929Z,226.73
2022-11-01T04:09:47.874Z,241.98
2022-11-01T04:12:12.486Z,189.77
2022-11-01T04:14:53.337Z,187.25
2022-11-01T04:17:34.242Z,239.38
2022-11-01T04:20:15.260Z,180.05
2022-11-01T04:22:39.514Z,249.45
2022-11-01T04:25:04.502Z,242.02
2022-11-01T04:27:28.145Z,226.85
2022-11-01T04:29:51.714Z,184.88
2022-11-01T04:32:15.416Z,171.48
2022-11-01T04:34:44.613Z,188.68
2022-11-01T04:37:08.201Z,171.30
2022-11-01T04:39:31.714Z,278.27
2022-11-01T04:41:56.659Z,138.73
2022-11-01T04:44:20.217Z,310.65
2022-11-01T04:46:43.763Z,1013.97
2022-11-01T04:49:07.244Z,380.85
2022-11-01T04:51:31.042Z,195.25
2022-11-01T04:53:54.560Z,185.60
2022-11-01T04:56:18.258Z,297.88
2022-11-01T04:58:46.266Z,299.77
2022-11-01T05:01:10.475Z,193.38
2022-11-01T05:03:34.626Z,260.83
2022-11-01T05:06:00.628Z,220.23
2022-11-01T05:08:24.149Z,162.63
2022-11-01T05:10:47.741Z,212.05
2022-11-01T05:13:13.137Z,136.73
2022-11-01T05:15:39.981Z,323.98
2022-11-01T05:18:07.402Z,211.10
2022-11-01T05:20:31.968Z,216.00
2022-11-01T05:23:00.828Z,176.43
2022-11-01T05:25:24.554Z,248.88
2022-11-01T05:27:48.103Z,209.85
2022-11-01T05:30:13.766Z,233.13
2022-11-01T05:32:39.051Z,203.38
2022-11-01T05:35:02.652Z,179.32
2022-11-01T05:37:28.191Z,190.48
2022-11-01T05:39:52.001Z,249.23
2022-11-01T05:42:15.665Z,236.55
2022-11-01T05:44:39.219Z,300.17
2022-11-01T05:47:05.020Z,295.30
2022-11-01T05:49:29.977Z,245.23
2022-11-01T05:51:53.545Z,191.35
2022-11-01T05:54:17.101Z,193.02
2022-11-01T05:56:40.674Z,229.45
2022-11-01T05:59:04.501Z,223.85
2022-11-01T06:01:28.113Z,245.85
2022-11-01T06:03:52.115Z,360.92
2022-11-01T06:06:17.044Z,249.05
2022-11-01T06:08:40.581Z,221.95
2022-11-01T06:11:05.111Z,260.58
2022-11-01T06:13:28.640Z,225.52
2022-11-01T06:15:52.194Z,248.10
2022-11-01T06:18:15.736Z,192.55
2022-11-01T06:20:39.427Z,244.98
2022-11-01T06:23:10.827Z,184.02
2022-11-01T06:25:34.394Z,207.25
2022-11-01T06:27:58.177Z,232.43
2022-11-01T06:30:21.953Z,166.70
2022-11-01T06:32:45.518Z,372.92
2022-11-01T06:35:11.843Z,227.52
2022-11-01T06:37:35.405Z,210.52
2022-11-01T06:40:00.511Z,192.18
2022-11-01T06:42:24.118Z,228.70
2022-11-01T06:44:47.649Z,189.93
2022-11-01T06:47:13.340Z,237.65
2022-11-01T06:49:36.932Z,217.45
2022-11-01T06:52:00.647Z,204.52
2022-11-01T06:54:24.459Z,195.38
2022-11-01T06:56:50.075Z,194.82
2022-11-01T06:59:13.716Z,193.23
2022-11-01T07:01:37.329Z,169.27
2022-11-01T07:04:01.335Z,218.00
2022-11-01T07:06:28.767Z,178.40
2022-11-01T07:08:52.474Z,164.07
2022-11-01T07:11:16.004Z,164.13
2022-11-01T07:13:40.982Z,192.75
2022-11-01T07:16:05.307Z,203.13
2022-11-01T07:18:29.951Z,216.27
2022-11-01T07:20:53.485Z,200.90
2022-11-01T07:23:19.531Z,170.32
2022-11-01T07:25:44.235Z,162.07
2022-11-01T07:28:08.000Z,190.82
2022-11-01T07:30:32.977Z,190.85
2022-11-01T07:32:57.671Z,249.73
2022-11-01T07:35:21.174Z,162.10
2022-11-01T07:37:44.783Z,152.25
2022-11-01T07:40:09.290Z,160.07
2022-11-01T07:42:32.909Z,147.02
2022-11-01T07:44:56.486Z,170.68
2022-11-01T07:47:21.708Z,176.68
2022-11-01T07:49:45.281Z,156.82
2022-11-01T07:52:08.894Z,138.55
2022-11-01T07:54:32.426Z,120.43
2022-11-01T07:56:55.994Z,114.65
2022-11-01T07:59:19.530Z,128.02
2022-11-01T08:01:43.247Z,107.55
2022-11-01T08:04:08.346Z,106.90
2022-11-01T08:06:31.941Z,98.55
2022-11-01T08:08:55.611Z,96.47
2022-11-01T08:11:19.587Z,97.78
2022-11-01T08:13:43.114Z,86.82
2022-11-01T08:16:07.960Z,75.93
2022-11-01T08:18:31.509Z,91.00
2022-11-01T08:20:56.470Z,78.85
2022-11-01T08:23:20.686Z,80.63
2022-11-01T08:25:44.766Z,65.82
2022-11-01T08:28:11.562Z,80.90
2022-11-01T08:30:35.729Z,69.93
2022-11-01T08:33:00.965Z,71.22
2022-11-01T08:35:24.856Z,53.72
2022-11-01T08:37:53.920Z,63.53
2022-11-01T08:40:17.935Z,59.97
2022-11-01T08:42:41.520Z,59.42
2022-11-01T08:45:06.208Z,59.17
2022-11-01T08:47:29.822Z,53.22
2022-11-01T08:49:53.451Z,46.88
2022-11-01T08:52:17.071Z,56.30
2022-11-01T08:54:42.074Z,52.83
2022-11-01T08:57:05.644Z,51.83
2022-11-01T08:59:29.321Z,45.42
2022-11-01T09:01:53.035Z,49.63
2022-11-01T09:04:16.686Z,47.28
2022-11-01T09:06:40.251Z,48.63
2022-11-01T09:09:03.990Z,46.25
2022-11-01T09:11:30.519Z,39.58
2022-11-01T09:13:54.582Z,46.38
2022-11-01T09:16:18.581Z,40.92
2022-11-01T09:18:42.511Z,49.72
2022-11-01T09:21:07.189Z,45.30
2022-11-01T09:23:30.998Z,44.63
2022-11-01T09:25:54.841Z,38.83
2022-11-01T09:28:20.043Z,42.70
2022-11-01T09:30:49.853Z,40.13
2022-11-01T09:33:24.637Z,40.45
2022-11-01T09:35:56.764Z,34.85
2022-11-01T09:38:22.909Z,36.53
2022-11-01T09:40:49.362Z,38.67
2022-11-01T09:43:21.806Z,37.20
2022-11-01T09:45:45.493Z,36.97
2022-11-01T09:48:09.590Z,33.13
2022-11-01T09:50:37.214Z,33.83
2022-11-01T09:53:01.075Z,32.92
2022-11-01T09:55:46.152Z,31.45
2022-11-01T09:58:27.891Z,30.55
2022-11-01T10:01:01.902Z,37.13
2022-11-01T10:03:44.838Z,29.75
2022-11-01T10:06:16.962Z,32.30
2022-11-01T10:08:59.364Z,36.50
2022-11-01T10:11:52.790Z,30.50
2022-11-01T10:14:36.591Z,31.27
2022-11-01T10:17:09.210Z,27.65
2022-11-01T10:19:35.435Z,32.15
2022-11-01T10:22:05.896Z,29.02
2022-11-01T10:24:35.932Z,30.30
2022-11-01T10:27:06.417Z,26.30
2022-11-01T10:29:38.303Z,28.85
2022-11-01T10:32:05.332Z,33.22
2022-11-01T10:34:36.209Z,32.80
2022-11-01T10:37:16.556Z,29.73
2022-11-01T10:39:54.693Z,25.40
2022-11-01T10:42:19.842Z,32.00
2022-11-01T10:44:48.444Z,36.58
2022-11-01T10:47:19.025Z,32.25
2022-11-01T10:52:40.893Z,33.95
2022-11-01T10:55:05.467Z,26.17
2022-11-01T10:57:40.772Z,32.38
2022-11-01T11:00:15.260Z,29.45
2022-11-01T11:02:44.618Z,32.55
2022-11-01T11:05:08.745Z,31.88
2022-11-01T11:07:33.414Z,35.80
2022-11-01T11:09:57.434Z,26.20
2022-11-01T11:12:23.230Z,30.73
2022-11-01T11:14:50.540Z,28.88
2022-11-01T11:17:21.902Z,31.52
2022-11-01T11:19:48.194Z,31.85
2022-11-01T11:22:12.549Z,31.05
2022-11-01T11:24:38.915Z,27.30
2022-11-01T11:27:05.510Z,31.55
2022-11-01T11:29:39.537Z,27.42
2022-11-01T11:32:04.977Z,26.42
2022-11-01T11:34:32.168Z,30.23
2022-11-01T11:36:57.081Z,25.27
2022-11-01T11:39:26.506Z,31.15
2022-11-01T11:41:50.207Z,24.70
2022-11-01T11:44:42.034Z,27.65
2022-11-01T11:47:05.931Z,26.95
2022-11-01T11:49:32.414Z,23.70
2022-11-01T11:51:56.529Z,22.52
2022-11-01T11:54:26.308Z,21.77
2022-11-01T11:56:53.070Z,26.67
2022-11-01T11:59:26.215Z,23.75
2022-11-01T12:01:50.140Z,27.15
2022-11-01T12:04:17.145Z,22.38
2022-11-01T12:06:44.737Z,20.13
2022-11-01T12:09:36.390Z,21.35
2022-11-01T12:12:08.850Z,21.80
2022-11-01T12:14:38.846Z,26.70
2022-11-01T12:17:02.536Z,26.98
2022-11-01T12:19:29.772Z,25.33
2022-11-01T12:21:56.031Z,27.27
2022-11-01T12:24:26.796Z,23.50
2022-11-01T12:26:53.493Z,22.27
2022-11-01T12:29:28.268Z,21.95
2022-11-01T12:31:52.870Z,19.20
2022-11-01T12:34:22.836Z,22.63
2022-11-01T12:36:53.923Z,23.27
2022-11-01T12:39:41.441Z,25.27
2022-11-01T12:42:06.430Z,26.08
2022-11-01T12:44:37.387Z,26.88
2022-11-01T12:47:09.365Z,18.52
2022-11-01T12:49:38.505Z,19.48
2022-11-01T12:52:12.732Z,19.73
2022-11-01T12:54:44.441Z,25.30
2022-11-01T12:57:16.498Z,21.15
2022-11-01T12:59:40.660Z,18.20
2022-11-01T13:02:27.930Z,16.75
2022-11-01T13:05:00.199Z,20.63
2022-11-01T13:07:35.435Z,17.73
2022-11-01T13:10:09.837Z,14.50
2022-11-01T13:12:46.739Z,14.70
2022-11-01T13:15:18.923Z,14.55
2022-11-01T13:17:50.328Z,16.27
2022-11-01T13:20:46.834Z,13.57
2022-11-01T13:23:22.407Z,14.18
2022-11-01T13:25:56.836Z,20.15
2022-11-01T13:28:35.305Z,14.32
2022-11-01T13:31:05.499Z,12.10
2022-11-01T13:33:38.104Z,17.05
2022-11-01T13:36:07.039Z,15.35
2022-11-01T13:38:40.210Z,17.58
2022-11-01T13:41:19.555Z,15.07
2022-11-01T13:43:47.686Z,15.00
2022-11-01T13:46:41.824Z,23.27
2022-11-01T13:49:54.262Z,18.90
2022-11-01T13:52:24.346Z,15.18
2022-11-01T13:54:56.808Z,17.10
2022-11-01T13:57:25.926Z,14.57
2022-11-01T13:59:57.787Z,19.63
2022-11-01T14:02:59.547Z,13.25
2022-11-01T14:05:32.273Z,17.05
2022-11-01T14:08:36.004Z,13.40
2022-11-01T14:10:59.717Z,16.88
2022-11-01T14:13:37.886Z,14.95
2022-11-01T14:16:22.716Z,18.05
2022-11-01T14:19:21.348Z,16.80
2022-11-01T14:21:48.579Z,17.58
2022-11-01T14:24:33.819Z,17.73
2022-11-01T14:27:21.164Z,15.48
2022-11-01T14:29:46.225Z,13.43
2022-11-01T14:32:12.309Z,14.02
2022-11-01T14:34:39.080Z,14.77
2022-11-01T14:37:19.855Z,17.58
2022-11-01T14:39:52.875Z,15.40
2022-11-01T14:42:23.164Z,14.65
2022-11-01T14:44:52.639Z,14.63
2022-11-01T14:47:34.110Z,13.55
2022-11-01T14:50:00.387Z,16.83
2022-11-01T14:52:31.199Z,15.60
2022-11-01T14:55:05.009Z,14.38
2022-11-01T14:57:32.105Z,17.30
2022-11-01T14:59:59.240Z,16.88
2022-11-01T15:02:25.534Z,16.40
2022-11-01T15:04:50.762Z,18.27
2022-11-01T15:07:27.671Z,15.13
2022-11-01T15:10:00.199Z,14.02
2022-11-01T15:12:23.900Z,14.25
2022-11-01T15:14:49.147Z,15.60
2022-11-01T15:17:22.258Z,18.88
2022-11-01T15:19:48.160Z,21.17
2022-11-01T15:22:17.748Z,16.50
2022-11-01T15:24:41.564Z,17.27
2022-11-01T15:27:14.535Z,17.30
2022-11-01T15:29:38.563Z,18.88
2022-11-01T15:32:02.973Z,18.48
2022-11-01T15:34:30.165Z,18.23
2022-11-01T15:36:54.173Z,18.20
2022-11-01T15:39:21.587Z,21.52
2022-11-01T15:41:46.037Z,17.15
2022-11-01T15:44:21.404Z,19.02
2022-11-01T15:46:45.438Z,14.50
2022-11-01T15:49:14.770Z,18.50
2022-11-01T15:51:43.965Z,21.02
2022-11-01T15:54:18.924Z,17.55
2022-11-01T15:56:48.916Z,20.77
2022-11-01T15:59:27.985Z,23.35
2022-11-01T16:01:52.948Z,19.35
2022-11-01T16:04:19.797Z,17.02
2022-11-01T16:06:49.902Z,21.88
2022-11-01T16:09:29.106Z,18.73
2022-11-01T16:11:57.511Z,19.95
2022-11-01T16:14:26.212Z,21.67
2022-11-01T16:17:02.070Z,20.00
2022-11-01T16:19:36.150Z,22.75
2022-11-01T16:22:01.193Z,24.50
2022-11-01T16:24:25.391Z,25.35
2022-11-01T16:26:56.008Z,27.88
2022-11-01T16:29:19.849Z,30.45
2022-11-01T16:31:43.415Z,38.25
2022-11-01T16:34:25.042Z,27.98
2022-11-01T16:36:48.881Z,27.90
2022-11-01T16:39:32.131Z,33.53
2022-11-01T16:41:55.841Z,30.42
2022-11-01T16:44:19.961Z,31.13
2022-11-01T16:46:44.315Z,27.25
2022-11-01T16:49:22.777Z,35.38
2022-11-01T16:51:46.534Z,33.83
2022-11-01T16:54:12.235Z,29.73
2022-11-01T16:56:42.782Z,26.73
2022-11-01T16:59:09.673Z,33.50
2022-11-01T17:01:35.876Z,29.95
2022-11-01T17:04:02.293Z,32.97
2022-11-01T17:06:26.855Z,37.65
2022-11-01T17:08:50.387Z,37.42
2022-11-01T17:11:14.674Z,43.65
2022-11-01T17:13:39.626Z,40.55
2022-11-01T17:16:04.807Z,40.75
2022-11-01T17:18:33.973Z,38.70
2022-11-01T17:21:00.167Z,41.83
2022-11-01T17:23:26.327Z,37.30
2022-11-01T17:25:52.538Z,39.22
2022-11-01T17:28:16.162Z,31.98
2022-11-01T17:30:41.171Z,31.85
2022-11-01T17:33:05.097Z,28.80
2022-11-01T17:35:28.663Z,34.85
2022-11-01T17:37:52.295Z,24.52
2022-11-01T17:40:21.225Z,23.50
2022-11-01T17:42:44.890Z,27.38
2022-11-01T17:45:11.468Z,31.77
2022-11-01T17:47:36.646Z,25.70
2022-11-01T17:50:00.378Z,30.02
2022-11-01T17:52:23.905Z,25.60
2022-11-01T17:54:47.494Z,28.35
2022-11-01T17:57:11.042Z,28.17
2022-11-01T17:59:35.141Z,26.30
2022-11-01T18:01:58.861Z,29.45
2022-11-01T18:04:23.877Z,48.50
2022-11-01T18:06:48.231Z,31.13
2022-11-01T18:09:22.769Z,27.60
2022-11-01T18:11:54.033Z,29.73
2022-11-01T18:14:23.212Z,34.65
2022-11-01T18:16:50.026Z,31.63
2022-11-01T18:19:36.093Z,34.05
2022-11-01T18:22:11.985Z,29.70
2022-11-01T18:24:39.976Z,38.45
2022-11-01T18:27:10.414Z,34.53
2022-11-01T18:29:39.031Z,33.30
2022-11-01T18:32:12.265Z,36.72
2022-11-01T18:34:44.334Z,31.40
2022-11-01T18:37:27.944Z,38.10
2022-11-01T18:40:01.218Z,29.33
2022-11-01T18:42:25.652Z,36.83
2022-11-01T18:44:49.186Z,45.78
2022-11-01T18:47:20.570Z,37.15
2022-11-01T18:49:45.574Z,36.50
2022-11-01T18:52:12.981Z,28.77
2022-11-01T18:54:45.780Z,38.25
2022-11-01T18:57:16.097Z,28.83
2022-11-01T18:59:40.757Z,28.58
2022-11-01T19:02:14.392Z,23.33
2022-11-01T19:04:39.164Z,24.98
2022-11-01T19:07:13.616Z,28.40
2022-11-01T19:09:39.624Z,31.15
2022-11-01T19:12:14.925Z,47.15
2022-11-01T19:14:39.243Z,24.70
2022-11-01T19:17:04.350Z,39.95
2022-11-01T19:19:28.006Z,41.70
2022-11-01T19:21:51.541Z,35.25
2022-11-01T19:24:32.167Z,29.45
2022-11-01T19:26:55.778Z,32.70
2022-11-01T19:29:25.397Z,30.60
2022-11-01T19:31:56.366Z,35.40
2022-11-01T19:34:22.762Z,34.05
2022-11-01T19:36:46.658Z,29.75
2022-11-01T19:39:23.505Z,32.97
2022-11-01T19:41:47.790Z,44.97
2022-11-01T19:44:16.654Z,36.35
2022-11-01T19:46:40.330Z,33.92
2022-11-01T19:49:03.849Z,39.33
2022-11-01T19:51:27.533Z,42.55
2022-11-01T19:53:51.910Z,38.88
2022-11-01T19:56:21.256Z,45.20
2022-11-01T19:58:46.047Z,55.95
2022-11-01T20:01:35.995Z,53.15
2022-11-01T20:04:02.326Z,33.88
2022-11-01T20:06:37.396Z,43.72
2022-11-01T20:09:06.376Z,33.85
2022-11-01T20:11:32.004Z,36.05
2022-11-01T20:13:55.623Z,43.30
2022-11-01T20:16:19.153Z,47.58
2022-11-01T20:18:42.737Z,41.17
2022-11-01T20:21:07.106Z,48.58
2022-11-01T20:23:31.112Z,39.15
2022-11-01T20:25:55.205Z,34.20
2022-11-01T20:28:20.294Z,45.17
2022-11-01T20:30:43.840Z,48.42
2022-11-01T20:33:07.513Z,46.22
2022-11-01T20:35:31.069Z,49.50
2022-11-01T20:37:54.602Z,50.97
2022-11-01T20:40:18.296Z,38.42
2022-11-01T20:42:41.890Z,38.80
2022-11-01T20:45:08.189Z,48.70
2022-11-01T20:47:32.783Z,38.75
2022-11-01T20:49:56.842Z,53.05
2022-11-01T20:52:38.761Z,60.58
2022-11-01T20:55:03.529Z,71.22
2022-11-01T20:57:28.381Z,71.28
2022-11-01T20:59:52.267Z,47.45
2022-11-01T21:02:19.664Z,51.63
2022-11-01T21:04:43.385Z,52.60
2022-11-01T21:07:12.984Z,48.92
2022-11-01T21:09:40.813Z,57.72
2022-11-01T21:12:04.487Z,52.33
2022-11-01T21:14:37.524Z,49.97
2022-11-01T21:17:02.204Z,61.80
2022-11-01T21:19:27.885Z,53.90
2022-11-01T21:21:56.454Z,49.38
2022-11-01T21:24:31.356Z,46.40
2022-11-01T21:27:13.931Z,45.72
2022-11-01T21:29:38.884Z,40.45
2022-11-01T21:32:04.254Z,47.95
2022-11-01T21:34:31.451Z,50.30
2022-11-01T21:36:55.649Z,47.75
2022-11-01T21:39:22.861Z,51.00
2022-11-01T21:41:49.161Z,43.22
2022-11-01T21:44:30.158Z,43.78
2022-11-01T21:46:57.265Z,40.67
2022-11-01T21:49:31.286Z,36.90
2022-11-01T21:51:56.627Z,53.97
2022-11-01T21:54:20.281Z,48.53
2022-11-01T21:56:43.888Z,51.40
2022-11-01T21:59:07.418Z,41.60
2022-11-01T22:01:31.173Z,39.22
2022-11-01T22:03:54.812Z,39.20
2022-11-01T22:06:19.798Z,37.45
2022-11-01T22:08:43.399Z,53.60
2022-11-01T22:11:07.325Z,40.92
2022-11-01T22:13:30.951Z,51.03
2022-11-01T22:15:54.504Z,54.45
2022-11-01T22:18:22.402Z,53.70
2022-11-01T22:20:48.435Z,49.35
2022-11-01T22:23:13.327Z,44.95
2022-11-01T22:25:36.942Z,45.17
2022-11-01T22:28:00.462Z,43.08
2022-11-01T22:30:24.060Z,52.90
2022-11-01T22:32:47.619Z,42.15
2022-11-01T22:35:11.429Z,37.20
2022-11-01T22:37:36.769Z,45.22
2022-11-01T22:40:01.714Z,46.38
2022-11-01T22:42:27.338Z,47.90
2022-11-01T22:44:52.017Z,61.60
2022-11-01T22:47:25.986Z,44.45
2022-11-01T22:49:54.628Z,58.60
2022-11-01T22:52:30.463Z,49.22
2022-11-01T22:54:59.586Z,62.95
2022-11-01T22:57:30.199Z,50.65
2022-11-01T22:59:57.501Z,48.10
2022-11-01T23:02:29.069Z,50.95
2022-11-01T23:05:02.257Z,51.63
2022-11-01T23:07:36.593Z,54.47
2022-11-01T23:10:05.382Z,45.72
2022-11-01T23:12:47.634Z,49.15
2022-11-01T23:15:28.140Z,51.35
2022-11-01T23:17:51.754Z,59.75
2022-11-01T23:20:17.349Z,48.15
2022-11-01T23:22:40.970Z,51.88
2022-11-01T23:25:06.153Z,48.97
2022-11-01T23:27:31.550Z,49.53
2022-11-01T23:29:57.382Z,51.50
2022-11-01T23:32:21.394Z,45.42
2022-11-01T23:34:45.569Z,43.85
2022-11-01T23:37:16.109Z,51.05
2022-11-01T23:39:39.800Z,58.42
2022-11-01T23:42:03.326Z,46.53
2022-11-01T23:44:31.445Z,48.35
2022-11-01T23:46:59.184Z,53.08
2022-11-01T23:49:26.213Z,51.53
2022-11-01T23:51:50.323Z,45.08
2022-11-01T23:54:25.509Z,50.60
2022-11-01T23:56:49.103Z,47.65
2022-11-01T23:59:13.233Z,53.92
